Time;durP1;ratioP1;P1;durP2;ratioP2;P2;SDS_P1;SDS_P2;PMS_P1;PMS_P2;Temp;Humidity;BMP_temperature;BMP_pressure;BME280_temperature;BME280_humidity;BME280_pressure;Samples;Min_cycle;Max_cycle;Signal;HPM_P1;HPM_P2
2023/09/19 00:04:28;;;;;;;9.80;4.17;;;;;;;;;;2614109;54;20414;-79
2023/09/19 00:09:58;;;;;;;6.03;2.80;;;;;;;;;;2614394;54;20451;-79
2023/09/19 00:15:30;;;;;;;10.03;3.30;;;;;;;;;;2614491;54;20387;-79
2023/09/19 00:21:00;;;;;;;9.90;3.87;;;;;;;;;;2614720;54;20346;-78
2023/09/19 00:26:32;;;;;;;3.80;2.80;;;;;;;;;;2614707;54;20378;-78
2023/09/19 00:32:05;;;;;;;7.73;2.53;;;;;;;;;;2614689;54;20379;-79
2023/09/19 00:37:35;;;;;;;4.80;2.80;;;;;;;;;;2614239;54;20398;-79
2023/09/19 00:43:05;;;;;;;4.73;2.57;;;;;;;;;;2614342;39;20655;-79
2023/09/19 00:48:41;;;;;;;2.80;2.23;;;;;;;;;;2614935;54;20383;-78
2023/09/19 01:00:19;;;;;;;8.53;3.37;;;;;;;;;;2615633;54;20455;-78
2023/09/19 01:05:49;;;;;;;5.33;2.20;;;;;;;;;;2615647;54;20382;-79
2023/09/19 01:11:29;;;;;;;3.53;2.13;;;;;;;;;;2615167;54;20383;-77
2023/09/19 01:17:06;;;;;;;7.20;2.67;;;;;;;;;;2613651;54;20439;-78
2023/09/19 01:22:35;;;;;;;8.83;2.50;;;;;;;;;;2614311;39;20785;-78
2023/09/19 01:28:23;;;;;;;14.87;3.57;;;;;;;;;;2613894;54;20379;-78
2023/09/19 01:34:04;;;;;;;5.03;2.57;;;;;;;;;;2613616;54;20387;-78
2023/09/19 01:42:56;;;;;;;8.63;3.37;;;;;;;;;;2614124;54;20366;-80
2023/09/19 01:58:04;;;;;;;7.30;3.10;;;;;;;;;;2615336;54;20431;-79
2023/09/19 02:03:35;;;;;;;9.40;3.40;;;;;;;;;;2614892;54;21469;-79
2023/09/19 02:09:05;;;;;;;6.87;3.93;;;;;;;;;;2615327;54;20334;-80
2023/09/19 02:14:36;;;;;;;5.77;3.10;;;;;;;;;;2614735;54;20379;-80
2023/09/19 02:20:09;;;;;;;14.50;3.10;;;;;;;;;;2615527;54;20418;-80
2023/09/19 02:22:54;;;;;;;12.00;3.80;;;;;;;;;;2614418;54;20420;-79
2023/09/19 02:25:20;;;;;;;10.50;3.60;;;;;;;;;;2614903;54;21084;-80
2023/09/19 02:30:50;;;;;;;16.00;3.23;;;;;;;;;;2615664;54;20416;-80
2023/09/19 02:36:19;;;;;;;5.10;2.13;;;;;;;;;;2614078;54;20391;-79
2023/09/19 02:41:50;;;;;;;7.87;2.67;;;;;;;;;;2613521;54;20370;-80
2023/09/19 02:47:19;;;;;;;9.73;3.23;;;;;;;;;;2613713;46;21050;-79
2023/09/19 02:52:49;;;;;;;5.47;2.57;;;;;;;;;;2614800;54;20448;-78
2023/09/19 02:58:19;;;;;;;7.47;3.87;;;;;;;;;;2614317;54;20426;-77
2023/09/19 03:03:49;;;;;;;8.40;3.50;;;;;;;;;;2614351;54;20410;-78
2023/09/19 03:09:19;;;;;;;4.90;3.10;;;;;;;;;;2614073;54;20379;-79
2023/09/19 03:14:50;;;;;;;9.90;2.83;;;;;;;;;;2614587;54;20391;-78
2023/09/19 03:20:20;;;;;;;6.40;3.53;;;;;;;;;;2614386;54;20395;-79
2023/09/19 03:23:06;;;;;;;6.87;3.00;;;;;;;;;;2613389;54;20411;-79
2023/09/19 03:25:34;;;;;;;17.23;2.77;;;;;;;;;;2613517;47;20415;-79
2023/09/19 03:31:05;;;;;;;10.10;3.83;;;;;;;;;;2614352;54;20406;-79
2023/09/19 03:36:35;;;;;;;7.47;4.50;;;;;;;;;;2614231;39;20860;-79
2023/09/19 03:42:05;;;;;;;6.43;3.27;;;;;;;;;;2613615;39;20840;-79
2023/09/19 03:47:34;;;;;;;10.27;3.17;;;;;;;;;;2610825;54;20387;-79
2023/09/19 03:53:04;;;;;;;9.40;2.97;;;;;;;;;;2614685;54;20390;-79
2023/09/19 03:58:38;;;;;;;6.87;3.60;;;;;;;;;;2615197;54;20435;-79
2023/09/19 04:01:23;;;;;;;7.93;3.97;;;;;;;;;;2614683;47;20399;-79
2023/09/19 04:03:51;;;;;;;8.30;4.10;;;;;;;;;;2613837;54;20511;-78
2023/09/19 04:09:21;;;;;;;6.23;2.83;;;;;;;;;;2614961;39;20788;-78
2023/09/19 04:14:51;;;;;;;5.17;3.23;;;;;;;;;;2614398;54;20419;-78
2023/09/19 04:20:23;;;;;;;12.60;5.73;;;;;;;;;;2615677;54;20415;-78
2023/09/19 04:25:52;;;;;;;6.80;3.60;;;;;;;;;;2615481;54;20398;-78
2023/09/19 04:31:22;;;;;;;8.03;4.27;;;;;;;;;;2615644;54;21039;-78
2023/09/19 04:36:52;;;;;;;10.87;3.60;;;;;;;;;;2615009;54;20382;-77
2023/09/19 04:42:24;;;;;;;6.33;3.10;;;;;;;;;;2614546;39;20861;-77
2023/09/19 04:45:10;;;;;;;13.43;4.40;;;;;;;;;;2613436;54;20786;-77
2023/09/19 04:47:38;;;;;;;6.37;3.00;;;;;;;;;;2613652;54;20412;-79
2023/09/19 04:53:08;;;;;;;7.33;3.80;;;;;;;;;;2614203;39;20789;-77
2023/09/19 04:58:38;;;;;;;11.90;3.90;;;;;;;;;;2614110;54;20450;-78
2023/09/19 05:04:08;;;;;;;6.90;3.87;;;;;;;;;;2615618;54;20373;-78
2023/09/19 05:09:37;;;;;;;4.20;2.60;;;;;;;;;;2615299;54;20940;-79
2023/09/19 05:15:08;;;;;;;5.77;3.43;;;;;;;;;;2615182;54;20378;-79
2023/09/19 05:20:39;;;;;;;6.53;3.10;;;;;;;;;;2614703;54;20395;-77
2023/09/19 05:26:10;;;;;;;4.40;3.47;;;;;;;;;;2615948;54;20407;-77
2023/09/19 05:31:40;;;;;;;6.33;3.47;;;;;;;;;;2613936;54;20399;-78
2023/09/19 05:37:10;;;;;;;9.93;3.70;;;;;;;;;;2615007;54;20997;-77
2023/09/19 05:42:41;;;;;;;7.00;3.80;;;;;;;;;;2614119;54;20383;-77
2023/09/19 05:48:13;;;;;;;9.13;3.67;;;;;;;;;;2614887;54;20479;-77
2023/09/19 05:53:43;;;;;;;8.27;3.83;;;;;;;;;;2614691;54;20412;-77
2023/09/19 06:02:54;;;;;;;5.93;3.67;;;;;;;;;;2613590;54;20415;-77
2023/09/19 06:08:24;;;;;;;11.73;3.30;;;;;;;;;;2614869;54;20551;-78
2023/09/19 06:13:53;;;;;;;11.03;5.90;;;;;;;;;;2613801;39;20778;-78
2023/09/19 06:19:25;;;;;;;9.57;4.13;;;;;;;;;;2613051;39;20577;-78
2023/09/19 06:24:56;;;;;;;12.23;3.80;;;;;;;;;;2614276;54;20358;-79
2023/09/19 06:30:26;;;;;;;7.83;4.17;;;;;;;;;;2613451;54;20387;-79
2023/09/19 06:35:59;;;;;;;11.07;4.10;;;;;;;;;;2612374;54;20394;-78
2023/09/19 06:41:29;;;;;;;9.20;3.50;;;;;;;;;;2612682;54;20410;-77
2023/09/19 06:46:59;;;;;;;8.90;4.50;;;;;;;;;;2613884;54;20427;-77
2023/09/19 06:52:29;;;;;;;8.70;5.30;;;;;;;;;;2611139;54;20410;-78
2023/09/19 06:57:59;;;;;;;13.30;4.80;;;;;;;;;;2611674;54;20395;-78
2023/09/19 07:03:28;;;;;;;7.50;4.10;;;;;;;;;;2614051;54;20933;-77
2023/09/19 07:08:58;;;;;;;8.77;4.60;;;;;;;;;;2611733;54;20359;-77
2023/09/19 07:14:30;;;;;;;7.77;4.77;;;;;;;;;;2613993;54;20434;-78
2023/09/19 07:19:59;;;;;;;7.10;4.00;;;;;;;;;;2609381;54;20427;-77
2023/09/19 07:25:29;;;;;;;15.53;5.43;;;;;;;;;;2609722;54;20398;-78
2023/09/19 07:31:03;;;;;;;11.50;4.30;;;;;;;;;;2608257;46;20421;-79
2023/09/19 07:36:32;;;;;;;10.03;5.27;;;;;;;;;;2610365;39;20865;-79
2023/09/19 07:42:02;;;;;;;19.37;5.40;;;;;;;;;;2607383;46;20458;-79
2023/09/19 07:47:32;;;;;;;8.13;4.67;;;;;;;;;;2608135;54;20456;-79
2023/09/19 07:53:04;;;;;;;7.00;5.53;;;;;;;;;;2610427;54;20379;-79
2023/09/19 08:04:48;;;;;;;8.63;5.20;;;;;;;;;;2607316;54;20412;-79
2023/09/19 08:10:19;;;;;;;6.10;4.80;;;;;;;;;;2608799;54;20391;-80
2023/09/19 08:15:48;;;;;;;7.60;5.80;;;;;;;;;;2608923;54;20570;-79
2023/09/19 08:21:18;;;;;;;14.40;5.30;;;;;;;;;;2608814;54;20379;-79
2023/09/19 08:26:48;;;;;;;10.23;5.10;;;;;;;;;;2608517;39;20891;-79
2023/09/19 08:32:23;;;;;;;7.33;4.87;;;;;;;;;;2612063;54;20536;-79
2023/09/19 08:37:56;;;;;;;10.80;6.37;;;;;;;;;;2609370;54;20419;-80
2023/09/19 08:43:26;;;;;;;9.23;5.67;;;;;;;;;;2609518;54;20383;-78
2023/09/19 08:49:03;;;;;;;7.00;5.30;;;;;;;;;;2609341;54;20391;-78
2023/09/19 08:54:38;;;;;;;8.03;5.13;;;;;;;;;;2610202;54;20390;-79
2023/09/19 09:03:43;;;;;;;7.20;6.53;;;;;;;;;;2614089;54;20419;-77
2023/09/19 09:06:28;;;;;;;13.03;9.30;;;;;;;;;;2612618;46;20531;-77
2023/09/19 09:08:54;;;;;;;8.03;6.17;;;;;;;;;;2611466;47;20423;-77
2023/09/19 09:14:24;;;;;;;12.53;6.00;;;;;;;;;;2612380;54;20410;-77
2023/09/19 09:19:54;;;;;;;8.83;6.47;;;;;;;;;;2611859;47;20900;-77
2023/09/19 09:31:32;;;;;;;9.13;7.30;;;;;;;;;;2611733;54;20495;-76
2023/09/19 09:37:03;;;;;;;12.37;7.30;;;;;;;;;;2611671;46;20411;-77
2023/09/19 09:42:41;;;;;;;8.20;7.10;;;;;;;;;;2607438;54;21014;-78
2023/09/19 09:48:31;;;;;;;7.07;6.37;;;;;;;;;;2606962;54;20398;-79
2023/09/19 09:54:22;;;;;;;7.27;6.77;;;;;;;;;;2606699;46;20407;-78
2023/09/19 10:06:11;;;;;;;16.20;7.37;;;;;;;;;;2608203;54;22897;-79
2023/09/19 10:11:44;;;;;;;7.13;6.73;;;;;;;;;;2612972;54;20505;-78
2023/09/19 10:17:15;;;;;;;14.37;8.13;;;;;;;;;;2612964;54;20391;-79
2023/09/19 10:22:56;;;;;;;10.40;7.70;;;;;;;;;;2610005;54;20487;-79
2023/09/19 10:28:28;;;;;;;8.47;7.87;;;;;;;;;;2612361;54;20383;-80
2023/09/19 10:33:58;;;;;;;9.67;8.87;;;;;;;;;;2610774;54;20391;-79
2023/09/19 10:39:31;;;;;;;9.80;8.90;;;;;;;;;;2611045;54;20395;-80
2023/09/19 10:45:07;;;;;;;9.47;8.77;;;;;;;;;;2610997;54;21070;-79
2023/09/19 10:50:44;;;;;;;22.40;9.40;;;;;;;;;;2610135;54;20984;-78
2023/09/19 10:56:19;;;;;;;10.33;9.40;;;;;;;;;;2610576;54;20433;-79
2023/09/19 10:59:15;;;;;;;9.23;8.67;;;;;;;;;;2612625;54;20461;-77
2023/09/19 11:11:26;;;;;;;13.33;9.43;;;;;;;;;;2611137;54;20815;-77
2023/09/19 11:17:10;;;;;;;9.60;8.73;;;;;;;;;;2609563;39;20878;-77
2023/09/19 11:22:49;;;;;;;11.67;9.40;;;;;;;;;;2609536;54;20506;-77
2023/09/19 11:28:26;;;;;;;9.60;8.67;;;;;;;;;;2611115;54;20424;-76
2023/09/19 11:40:28;;;;;;;8.80;8.20;;;;;;;;;;2612523;54;20894;-77
2023/09/19 11:46:01;;;;;;;11.57;10.87;;;;;;;;;;2610474;46;20414;-79
2023/09/19 11:51:41;;;;;;;12.27;10.20;;;;;;;;;;2611081;54;20520;-78
2023/09/19 11:57:11;;;;;;;11.20;9.63;;;;;;;;;;2609661;54;20498;-79
2023/09/19 12:06:17;;;;;;;11.10;10.00;;;;;;;;;;2612057;54;20402;-78
2023/09/19 12:11:47;;;;;;;9.60;8.80;;;;;;;;;;2607559;54;20450;-79
2023/09/19 12:17:18;;;;;;;10.83;10.13;;;;;;;;;;2611093;54;20374;-80
2023/09/19 12:22:49;;;;;;;13.47;11.07;;;;;;;;;;2609859;54;20425;-78
2023/09/19 12:28:21;;;;;;;11.40;10.57;;;;;;;;;;2609613;54;20366;-79
2023/09/19 12:33:55;;;;;;;14.50;10.77;;;;;;;;;;2609274;39;20864;-79
2023/09/19 12:39:26;;;;;;;11.23;10.07;;;;;;;;;;2612589;54;20406;-79
2023/09/19 12:44:57;;;;;;;10.90;10.00;;;;;;;;;;2613220;54;20415;-80
2023/09/19 12:50:29;;;;;;;10.93;10.23;;;;;;;;;;2610071;54;20387;-81
2023/09/19 12:55:59;;;;;;;10.87;10.17;;;;;;;;;;2611268;54;20435;-79
2023/09/19 13:01:29;;;;;;;11.13;10.33;;;;;;;;;;2612109;54;20426;-78
2023/09/19 13:07:01;;;;;;;11.87;11.07;;;;;;;;;;2610051;54;20378;-79
2023/09/19 13:12:38;;;;;;;11.13;10.30;;;;;;;;;;2612976;54;20974;-79
2023/09/19 13:18:13;;;;;;;11.40;10.57;;;;;;;;;;2612853;54;20416;-79
2023/09/19 13:23:43;;;;;;;11.90;11.07;;;;;;;;;;2611925;39;20844;-77
2023/09/19 13:29:17;;;;;;;11.17;10.27;;;;;;;;;;2610676;54;20391;-77
2023/09/19 13:34:47;;;;;;;9.70;9.10;;;;;;;;;;2612076;54;20395;-78
2023/09/19 13:40:16;;;;;;;10.20;9.50;;;;;;;;;;2613017;39;20767;-77
2023/09/19 13:45:46;;;;;;;10.23;9.53;;;;;;;;;;2612097;54;20499;-77
2023/09/19 13:51:16;;;;;;;10.60;9.70;;;;;;;;;;2610046;46;20511;-76
2023/09/19 13:56:46;;;;;;;11.17;10.43;;;;;;;;;;2610330;54;20395;-78
2023/09/19 14:08:24;;;;;;;10.57;9.73;;;;;;;;;;2610107;54;20407;-78
2023/09/19 14:13:54;;;;;;;10.97;10.17;;;;;;;;;;2611394;54;20391;-78
2023/09/19 14:19:23;;;;;;;10.40;9.90;;;;;;;;;;2611837;39;20761;-77
2023/09/19 14:24:53;;;;;;;10.73;9.93;;;;;;;;;;2612361;54;21617;-76
2023/09/19 14:30:23;;;;;;;11.47;10.60;;;;;;;;;;2612290;39;20920;-77
2023/09/19 14:35:53;;;;;;;11.70;9.70;;;;;;;;;;2612248;54;20414;-76
2023/09/19 14:41:25;;;;;;;10.80;10.10;;;;;;;;;;2610399;54;20435;-77
2023/09/19 14:46:55;;;;;;;10.60;10.00;;;;;;;;;;2611808;54;20399;-77
2023/09/19 14:52:28;;;;;;;10.27;9.50;;;;;;;;;;2610957;54;21048;-77
2023/09/19 14:57:59;;;;;;;10.43;9.90;;;;;;;;;;2609814;54;20387;-78
2023/09/19 15:07:07;;;;;;;10.20;9.60;;;;;;;;;;2610461;54;20443;-79
2023/09/19 15:12:37;;;;;;;10.00;9.23;;;;;;;;;;2610367;54;20418;-79
2023/09/19 15:18:07;;;;;;;9.33;8.73;;;;;;;;;;2610756;54;20519;-78
2023/09/19 15:23:37;;;;;;;9.17;8.77;;;;;;;;;;2610406;54;20394;-79
2023/09/19 15:29:07;;;;;;;9.80;9.10;;;;;;;;;;2611718;54;20949;-77
2023/09/19 15:34:37;;;;;;;10.20;9.30;;;;;;;;;;2611638;54;20378;-77
2023/09/19 15:40:10;;;;;;;9.90;9.23;;;;;;;;;;2611853;54;20917;-79
2023/09/19 15:45:39;;;;;;;9.90;9.30;;;;;;;;;;2613363;54;20419;-79
2023/09/19 15:51:11;;;;;;;9.50;9.00;;;;;;;;;;2612508;54;20947;-78
2023/09/19 15:56:44;;;;;;;10.03;9.53;;;;;;;;;;2614236;39;20784;-79
2023/09/19 16:02:14;;;;;;;9.93;9.10;;;;;;;;;;2612628;46;20418;-80
2023/09/19 16:07:44;;;;;;;9.57;9.07;;;;;;;;;;2611560;54;20538;-79
2023/09/19 16:13:15;;;;;;;9.23;8.80;;;;;;;;;;2611849;54;20379;-79
2023/09/19 16:18:48;;;;;;;9.50;9.00;;;;;;;;;;2611556;54;20842;-78
2023/09/19 16:24:17;;;;;;;9.07;8.53;;;;;;;;;;2611688;54;20432;-78
2023/09/19 16:29:51;;;;;;;8.77;8.27;;;;;;;;;;2611826;54;20446;-79
2023/09/19 16:35:20;;;;;;;9.50;9.00;;;;;;;;;;2611791;54;20434;-80
2023/09/19 16:40:58;;;;;;;9.90;9.23;;;;;;;;;;2611784;54;20398;-79
2023/09/19 16:46:27;;;;;;;9.90;9.40;;;;;;;;;;2608913;54;20428;-78
2023/09/19 16:51:57;;;;;;;10.40;9.67;;;;;;;;;;2611392;46;20377;-75
2023/09/19 16:57:27;;;;;;;10.30;9.70;;;;;;;;;;2608891;54;20424;-78
2023/09/19 17:09:04;;;;;;;10.53;10.03;;;;;;;;;;2608380;54;20387;-77
2023/09/19 17:14:35;;;;;;;10.03;9.53;;;;;;;;;;2609701;54;20423;-77
2023/09/19 17:20:06;;;;;;;9.57;9.07;;;;;;;;;;2609397;54;20495;-79
2023/09/19 17:25:37;;;;;;;9.47;8.97;;;;;;;;;;2610671;54;20418;-77
2023/09/19 17:37:14;;;;;;;11.20;10.60;;;;;;;;;;2611390;54;20387;-78
2023/09/19 17:42:44;;;;;;;9.77;9.27;;;;;;;;;;2611921;54;21018;-77
2023/09/19 17:48:14;;;;;;;11.20;10.50;;;;;;;;;;2613536;54;20515;-78
2023/09/19 17:53:44;;;;;;;9.77;9.07;;;;;;;;;;2611447;54;20375;-78
2023/09/19 17:59:14;;;;;;;9.63;8.80;;;;;;;;;;2610756;54;20367;-80
2023/09/19 18:04:43;;;;;;;10.17;9.57;;;;;;;;;;2610594;54;20410;-79
2023/09/19 18:10:13;;;;;;;9.77;9.17;;;;;;;;;;2606707;54;20387;-80
2023/09/19 18:15:43;;;;;;;11.00;10.40;;;;;;;;;;2609010;54;20419;-77
2023/09/19 18:21:13;;;;;;;10.87;10.30;;;;;;;;;;2613138;54;20398;-78
2023/09/19 18:26:42;;;;;;;9.90;9.20;;;;;;;;;;2614231;54;21152;-78
2023/09/19 18:32:13;;;;;;;10.17;9.40;;;;;;;;;;2614075;54;20375;-78
2023/09/19 18:37:42;;;;;;;10.10;9.10;;;;;;;;;;2616096;31;20869;-76
2023/09/19 18:43:12;;;;;;;9.03;8.63;;;;;;;;;;2613594;54;20383;-78
2023/09/19 18:48:44;;;;;;;9.40;8.90;;;;;;;;;;2614459;54;20382;-77
2023/09/19 18:54:16;;;;;;;9.47;8.87;;;;;;;;;;2615100;54;20383;-78
2023/09/19 18:59:45;;;;;;;8.97;8.40;;;;;;;;;;2614112;54;20367;-77
2023/09/19 19:02:38;;;;;;;8.77;8.27;;;;;;;;;;2614124;54;20964;-78
2023/09/19 19:05:04;;;;;;;8.67;8.17;;;;;;;;;;2614099;54;20419;-78
2023/09/19 19:10:39;;;;;;;9.03;8.63;;;;;;;;;;2614287;54;20977;-83
2023/09/19 19:16:10;;;;;;;9.20;8.33;;;;;;;;;;2614473;54;20932;-81
2023/09/19 19:21:41;;;;;;;8.77;8.27;;;;;;;;;;2615597;54;20414;-81
2023/09/19 19:27:11;;;;;;;9.77;8.93;;;;;;;;;;2613313;54;20390;-81
2023/09/19 19:32:41;;;;;;;9.40;8.80;;;;;;;;;;2612679;54;20422;-81
2023/09/19 19:38:11;;;;;;;10.00;9.40;;;;;;;;;;2611875;54;20405;-82
2023/09/19 19:43:44;;;;;;;9.57;9.07;;;;;;;;;;2612176;47;20387;-83
2023/09/19 19:49:15;;;;;;;10.07;9.27;;;;;;;;;;2612806;47;20917;-83
2023/09/19 19:54:45;;;;;;;12.47;11.57;;;;;;;;;;2611739;54;20921;-82
2023/09/19 20:00:20;;;;;;;9.00;8.50;;;;;;;;;;2610421;54;20371;-81
2023/09/19 20:09:27;;;;;;;9.73;9.13;;;;;;;;;;2611988;54;20543;-82
2023/09/19 20:14:57;;;;;;;8.67;8.20;;;;;;;;;;2608954;54;20798;-81
2023/09/19 20:20:27;;;;;;;9.80;9.10;;;;;;;;;;2612241;54;20394;-80
2023/09/19 20:26:04;;;;;;;9.50;8.73;;;;;;;;;;2611193;54;20966;-79
2023/09/19 20:31:37;;;;;;;9.77;9.17;;;;;;;;;;2609513;39;21625;-78
2023/09/19 20:37:06;;;;;;;9.77;9.07;;;;;;;;;;2607899;54;20483;-79
2023/09/19 20:42:39;;;;;;;9.77;9.13;;;;;;;;;;2609741;54;20503;-79
2023/09/19 20:48:10;;;;;;;10.17;9.60;;;;;;;;;;2611511;46;20370;-79
2023/09/19 20:53:41;;;;;;;10.33;9.63;;;;;;;;;;2608647;54;20379;-80
2023/09/19 20:59:11;;;;;;;9.80;9.20;;;;;;;;;;2609499;54;20387;-81
2023/09/19 21:04:40;;;;;;;9.43;8.90;;;;;;;;;;2609209;54;20439;-79
2023/09/19 21:10:10;;;;;;;10.00;9.13;;;;;;;;;;2610452;54;20395;-78
2023/09/19 21:15:43;;;;;;;10.13;9.23;;;;;;;;;;2610234;54;20414;-79
2023/09/19 21:21:12;;;;;;;9.10;8.50;;;;;;;;;;2609256;54;20390;-79
2023/09/19 21:26:42;;;;;;;9.87;9.17;;;;;;;;;;2609506;46;20953;-80
2023/09/19 21:32:12;;;;;;;10.83;8.97;;;;;;;;;;2609060;39;21842;-81
2023/09/19 21:37:42;;;;;;;9.07;8.67;;;;;;;;;;2607374;54;20643;-80
2023/09/19 21:43:12;;;;;;;10.47;9.47;;;;;;;;;;2608221;39;20755;-81
2023/09/19 21:48:42;;;;;;;9.17;8.57;;;;;;;;;;2608691;46;20407;-81
2023/09/19 21:54:11;;;;;;;9.70;9.20;;;;;;;;;;2611597;39;20912;-81
2023/09/19 21:59:44;;;;;;;9.33;8.80;;;;;;;;;;2608459;54;20507;-80
2023/09/19 22:02:32;;;;;;;9.40;8.87;;;;;;;;;;2607752;50;20429;-80
2023/09/19 22:04:58;;;;;;;9.70;8.80;;;;;;;;;;2608349;54;20483;-80
2023/09/19 22:10:28;;;;;;;8.93;8.40;;;;;;;;;;2611352;54;20443;-80
2023/09/19 22:15:58;;;;;;;9.70;9.10;;;;;;;;;;2608961;54;20443;-80
2023/09/19 22:27:20;;;;;;;11.37;9.60;;;;;;;;;;2608635;54;20403;-81
2023/09/19 22:32:50;;;;;;;9.90;8.73;;;;;;;;;;2608544;54;20470;-81
2023/09/19 22:38:20;;;;;;;11.67;9.83;;;;;;;;;;2609211;54;20395;-80
2023/09/19 22:43:51;;;;;;;9.33;8.63;;;;;;;;;;2608932;54;20985;-80
2023/09/19 22:49:20;;;;;;;9.60;8.90;;;;;;;;;;2611848;54;20412;-80
2023/09/19 22:54:50;;;;;;;10.00;9.30;;;;;;;;;;2612164;54;20383;-81
2023/09/19 23:00:20;;;;;;;9.30;8.57;;;;;;;;;;2612920;54;20420;-81
2023/09/19 23:09:26;;;;;;;9.30;8.80;;;;;;;;;;2612559;39;20834;-81
2023/09/19 23:14:56;;;;;;;9.77;8.97;;;;;;;;;;2612116;54;20511;-81
2023/09/19 23:20:25;;;;;;;9.13;8.53;;;;;;;;;;2612541;54;20394;-81
2023/09/19 23:25:55;;;;;;;9.50;8.90;;;;;;;;;;2611821;54;21923;-80
2023/09/19 23:31:24;;;;;;;9.60;8.90;;;;;;;;;;2612202;54;20394;-83
2023/09/19 23:36:55;;;;;;;9.93;8.93;;;;;;;;;;2608782;54;22315;-82
2023/09/19 23:42:27;;;;;;;9.77;8.97;;;;;;;;;;2609108;54;20436;-82
2023/09/19 23:47:57;;;;;;;13.00;9.90;;;;;;;;;;2607943;39;20767;-82
2023/09/19 23:53:28;;;;;;;9.70;9.00;;;;;;;;;;2607717;54;20852;-80
2023/09/19 23:58:58;;;;;;;9.27;8.73;;;;;;;;;;2610071;54;20417;-79
